Schenectady, NY (12306)

8:52 PM EST on February 09, 2016 (GMT -0500)
West Hill | | Change Station
CLOSE
Current Station
Personal Weather Station
Location: Schenectady, NY
Elevation: 627 ft
Nearby Weather Stations

Elev 627 ft 42.82 °N, 74.01 °W | Updated 1 second ago

Overcast
Overcast
26.4 °F
Feels Like 26 °F
N
0.0
Wind Variable Wind from WSW
Gusts 0.0 mph

Today
High -- | Low -- °F
--% Chance of Precip.
Yesterday
High -- | Low -- °F
Precip. -- in
Pressure 29.60 in
Visibility 3.0 miles
Clouds Few 3700 ft
Mostly Cloudy 5500 ft
Overcast 8000 ft
Windchill 26 °F
Dew Point 22 °F
Humidity 83%
Rainfall 0.00 in
Snow Depth Not available.
7:01 AM 5:19 PM
Waxing Crescent, 3% visible
METAR KALB 100051Z 11003KT 3SM -SN FEW037 BKN055 OVC080 M02/M05 A2959 RMK AO2 SLP022 P0001 T10221050 $
Pressure 29.60 in
Visibility 3.0 miles
Clouds Few 3700 ft
Mostly Cloudy 5500 ft
Overcast 8000 ft
Windchill 26 °F
Dew Point 22 °F
Humidity 83%
Rainfall 0.00 in
Snow Depth Not available.
7:01 AM 5:19 PM
Waxing Crescent, 3% visible
METAR KALB 100051Z 11003KT 3SM -SN FEW037 BKN055 OVC080 M02/M05 A2959 RMK AO2 SLP022 P0001 T10221050 $

10-Day Weather Forecast

Almanac

Astronomy

Feb. 09, 2016 Rise Set
Actual Time
Civil Twilight
Nautical Twilight
Astronomical Twilight
Moon
Length of Visible Light
Length of Day
Tomorrow will be .
, % of the Moon is Illuminated

Today's Extremes

State Highs State Lows

Community

WunderPhotos

Upload Photos

1,891,760 photos uploaded!

WunderBlog® & News

Nearby

Air Quality

  Air Quality AQ Index Pollutant
Not available.

Snow Depth

Station Depth Elevation

Earthquake Activity

City Distance Mag. Time & Date
Minimum magnitude displayed is 2.5.

Coastal Water Temperatures

Place Temperature

Stations

Nearby Weather Stations

Station Location Temp. Windchill Dew Point Humidity Wind Precip. Elev Updated Type
                   

Watches & Warnings

There are currently no watches in effect.